Terminal Aerodrome Forecast
Issued by NWS

Home | Current Version | Previous Version | Text Only | Print | Product List | Glossary On
Versions: 1 2 3 4 5 6 7 8 9 10 11 12 13 14 15
773
FTUS46 KSEW 261120
TAFHQM
TAF
KHQM 261120Z 2612/2712 22015G25KT 5SM -SHRA BR SCT005 BKN015 OVC025
      TEMPO 2612/2614 4SM -SHRA BR SCT005 OVC012
     FM261400 24015G25KT 5SM -SHRA BR BKN015 OVC030
     FM261700 26016G26KT P6SM VCSH OVC025
     FM262000 26017G28KT P6SM VCSH BKN030
     FM270600 25013G22KT P6SM OVC030
     FM270900 23010KT P6SM OVC025=

USA.gov is the U.S. government's official web portal to all federal, state and local government web resources and services.